Time;durP1;ratioP1;P1;durP2;ratioP2;P2;SDS_P1;SDS_P2;PMS_P1;PMS_P2;Temp;Humidity;BMP_temperature;BMP_pressure;BME280_temperature;BME280_humidity;BME280_pressure;Samples;Min_cycle;Max_cycle;Signal;HPM_P1;HPM_P2
2023/04/11 00:00:05;;;;;;;13.27;4.40;;;;;;;;;;5080332;28;20095;-64
2023/04/11 00:02:33;;;;;;;12.20;4.47;;;;;;;;;;5073554;28;20055;-63
2023/04/11 00:04:59;;;;;;;16.15;4.55;;;;;;;;;;5076115;28;20030;-63
2023/04/11 00:07:24;;;;;;;14.35;4.22;;;;;;;;;;5072452;28;20052;-63
2023/04/11 00:09:50;;;;;;;13.15;4.35;;;;;;;;;;5083765;28;20074;-63
2023/04/11 00:12:15;;;;;;;12.80;4.40;;;;;;;;;;5071957;28;20048;-63
2023/04/11 00:14:44;;;;;;;23.80;5.38;;;;;;;;;;5066863;28;20085;-64
2023/04/11 00:17:11;;;;;;;14.35;4.65;;;;;;;;;;5072758;28;20103;-64
2023/04/11 00:19:38;;;;;;;14.68;4.93;;;;;;;;;;5073733;28;20044;-64
2023/04/11 00:22:03;;;;;;;15.88;4.78;;;;;;;;;;5072486;28;20107;-63
2023/04/11 00:24:29;;;;;;;11.43;4.80;;;;;;;;;;5071648;28;20447;-64
2023/04/11 00:26:55;;;;;;;13.10;5.28;;;;;;;;;;5072046;28;20027;-64
2023/04/11 00:29:21;;;;;;;14.23;4.85;;;;;;;;;;5071681;28;20028;-63
2023/04/11 00:31:46;;;;;;;14.43;4.70;;;;;;;;;;5079252;28;20375;-64
2023/04/11 00:34:11;;;;;;;16.25;5.05;;;;;;;;;;5071738;28;20028;-64
2023/04/11 00:36:36;;;;;;;22.10;6.57;;;;;;;;;;5071833;28;20033;-64
2023/04/11 00:39:02;;;;;;;18.90;5.70;;;;;;;;;;5071631;28;20062;-64
2023/04/11 00:41:28;;;;;;;21.15;6.00;;;;;;;;;;5071473;28;20020;-65
2023/04/11 00:43:53;;;;;;;20.35;6.22;;;;;;;;;;5071607;28;20012;-63
2023/04/11 00:46:19;;;;;;;18.50;5.78;;;;;;;;;;5079230;28;20044;-64
2023/04/11 00:48:44;;;;;;;27.65;5.93;;;;;;;;;;5076310;28;20082;-63
2023/04/11 00:51:10;;;;;;;18.77;4.97;;;;;;;;;;5075421;28;20056;-64
2023/04/11 00:53:36;;;;;;;22.77;6.57;;;;;;;;;;5071727;28;20459;-64
2023/04/11 00:56:01;;;;;;;24.50;6.70;;;;;;;;;;5071362;28;20024;-64
2023/04/11 00:58:26;;;;;;;18.33;5.90;;;;;;;;;;5080211;28;20383;-64
2023/04/11 01:00:52;;;;;;;20.90;5.88;;;;;;;;;;5071739;28;20062;-64
2023/04/11 01:03:17;;;;;;;17.40;5.65;;;;;;;;;;5071046;28;20028;-64
2023/04/11 01:05:43;;;;;;;12.32;5.45;;;;;;;;;;5083790;28;20108;-64
2023/04/11 01:08:08;;;;;;;23.33;6.13;;;;;;;;;;5070691;28;20025;-64
2023/04/11 01:10:34;;;;;;;22.63;6.63;;;;;;;;;;5083089;28;20028;-64
2023/04/11 01:13:00;;;;;;;35.25;7.10;;;;;;;;;;5077606;28;20023;-65
2023/04/11 01:15:25;;;;;;;28.35;6.80;;;;;;;;;;5080671;28;20028;-64
2023/04/11 01:17:54;;;;;;;18.70;6.95;;;;;;;;;;5070552;28;20021;-64
2023/04/11 01:20:20;;;;;;;22.10;7.45;;;;;;;;;;5071459;28;20039;-64
2023/04/11 01:22:46;;;;;;;28.52;7.00;;;;;;;;;;5084050;28;20024;-64
2023/04/11 01:25:13;;;;;;;19.40;6.50;;;;;;;;;;5071627;28;20092;-64
2023/04/11 01:27:38;;;;;;;18.38;6.45;;;;;;;;;;5070713;28;20119;-65
2023/04/11 01:30:04;;;;;;;22.20;6.97;;;;;;;;;;5071008;28;20052;-63
2023/04/11 01:32:29;;;;;;;28.55;6.47;;;;;;;;;;5070313;28;20040;-63
2023/04/11 01:34:56;;;;;;;18.30;6.15;;;;;;;;;;5070755;28;20017;-64
2023/04/11 01:37:21;;;;;;;13.60;6.15;;;;;;;;;;5071033;28;20032;-64
2023/04/11 01:39:46;;;;;;;30.13;7.15;;;;;;;;;;5071139;28;20390;-64
2023/04/11 01:42:12;;;;;;;20.30;6.10;;;;;;;;;;5077185;28;20074;-64
2023/04/11 01:44:38;;;;;;;25.00;6.50;;;;;;;;;;5071872;28;20103;-64
2023/04/11 01:47:03;;;;;;;23.02;6.47;;;;;;;;;;5070528;28;20104;-64
2023/04/11 01:49:28;;;;;;;18.92;5.53;;;;;;;;;;5071832;28;20463;-64
2023/04/11 01:51:54;;;;;;;20.48;7.18;;;;;;;;;;5071616;28;20490;-64
2023/04/11 01:54:19;;;;;;;26.67;7.35;;;;;;;;;;5070368;28;20052;-64
2023/04/11 01:56:45;;;;;;;20.98;6.43;;;;;;;;;;5070701;28;20032;-64
2023/04/11 01:59:10;;;;;;;18.85;7.68;;;;;;;;;;5070754;28;20058;-64
2023/04/11 02:01:35;;;;;;;23.20;7.10;;;;;;;;;;5070766;28;20099;-64
2023/04/11 02:04:01;;;;;;;19.95;6.15;;;;;;;;;;5070702;28;20085;-65
2023/04/11 02:06:26;;;;;;;20.25;6.72;;;;;;;;;;5071412;28;20356;-64
2023/04/11 02:08:52;;;;;;;31.00;7.90;;;;;;;;;;5072638;28;20032;-66
2023/04/11 02:11:17;;;;;;;17.85;5.40;;;;;;;;;;5077729;28;20074;-66
2023/04/11 02:13:42;;;;;;;20.70;6.32;;;;;;;;;;5071446;28;20471;-65
2023/04/11 02:16:10;;;;;;;19.35;6.63;;;;;;;;;;5072382;28;20012;-66
2023/04/11 02:18:35;;;;;;;21.17;7.80;;;;;;;;;;5073773;28;20104;-65
2023/04/11 02:21:01;;;;;;;21.70;7.30;;;;;;;;;;5073487;28;20531;-65
2023/04/11 02:23:26;;;;;;;27.15;6.60;;;;;;;;;;5055413;28;20021;-66
2023/04/11 02:25:51;;;;;;;21.65;6.43;;;;;;;;;;5083304;28;20044;-65
2023/04/11 02:28:17;;;;;;;21.85;7.45;;;;;;;;;;5077746;28;20068;-65
2023/04/11 02:30:42;;;;;;;20.20;5.93;;;;;;;;;;5073815;28;20383;-65
2023/04/11 02:33:07;;;;;;;19.50;6.45;;;;;;;;;;5073858;28;20056;-65
2023/04/11 02:35:32;;;;;;;18.58;6.85;;;;;;;;;;5076641;28;20016;-65
2023/04/11 02:37:58;;;;;;;23.38;7.72;;;;;;;;;;5078545;28;20434;-65
2023/04/11 02:40:23;;;;;;;25.48;6.88;;;;;;;;;;5073924;28;20033;-64
2023/04/11 02:42:48;;;;;;;30.67;7.00;;;;;;;;;;5073792;28;20032;-67
2023/04/11 02:45:14;;;;;;;18.70;6.25;;;;;;;;;;5082214;28;20028;-66
2023/04/11 02:47:40;;;;;;;31.30;7.43;;;;;;;;;;5077251;28;20143;-64
2023/04/11 02:50:05;;;;;;;25.30;7.53;;;;;;;;;;5082291;28;20099;-65
2023/04/11 02:52:32;;;;;;;28.58;6.90;;;;;;;;;;5077658;28;20467;-64
2023/04/11 02:54:57;;;;;;;22.38;6.78;;;;;;;;;;5074044;28;20082;-65
2023/04/11 02:57:23;;;;;;;32.42;7.97;;;;;;;;;;5073451;28;20020;-65
2023/04/11 02:59:48;;;;;;;25.05;6.80;;;;;;;;;;5080862;28;20024;-65
2023/04/11 03:02:13;;;;;;;23.38;6.53;;;;;;;;;;5078310;28;20036;-64
2023/04/11 03:04:38;;;;;;;33.80;7.22;;;;;;;;;;5081929;28;20103;-63
2023/04/11 03:07:04;;;;;;;26.05;6.65;;;;;;;;;;5073428;28;20074;-64
2023/04/11 03:09:29;;;;;;;28.48;7.30;;;;;;;;;;5075624;28;20429;-64
2023/04/11 03:11:55;;;;;;;25.17;6.10;;;;;;;;;;5084110;28;20032;-64
2023/04/11 03:14:20;;;;;;;24.70;6.85;;;;;;;;;;5073606;28;20028;-65
2023/04/11 03:16:46;;;;;;;20.85;6.88;;;;;;;;;;5073134;28;20547;-65
2023/04/11 03:19:11;;;;;;;27.88;7.70;;;;;;;;;;5072809;28;20386;-66
2023/04/11 03:21:36;;;;;;;33.58;7.78;;;;;;;;;;5073841;28;20071;-65
2023/04/11 03:24:02;;;;;;;36.55;6.65;;;;;;;;;;5073098;28;20020;-65
2023/04/11 03:26:27;;;;;;;23.92;6.80;;;;;;;;;;5071957;28;20093;-65
2023/04/11 03:28:53;;;;;;;26.05;7.40;;;;;;;;;;5072341;28;20142;-65
2023/04/11 03:31:18;;;;;;;22.52;7.43;;;;;;;;;;5079059;28;20035;-65
2023/04/11 03:33:45;;;;;;;20.98;7.18;;;;;;;;;;5078360;28;20478;-65
2023/04/11 03:36:10;;;;;;;18.02;6.18;;;;;;;;;;5074304;28;20024;-65
2023/04/11 03:38:35;;;;;;;25.65;5.90;;;;;;;;;;5072703;28;20486;-65
2023/04/11 03:41:00;;;;;;;24.45;6.30;;;;;;;;;;5071777;28;20382;-65
2023/04/11 03:43:26;;;;;;;17.20;6.50;;;;;;;;;;5073737;28;20047;-65
2023/04/11 03:45:52;;;;;;;26.42;7.45;;;;;;;;;;5072202;28;20027;-65
2023/04/11 03:48:17;;;;;;;31.73;6.43;;;;;;;;;;5072152;28;20118;-65
2023/04/11 03:50:43;;;;;;;19.33;6.53;;;;;;;;;;5072980;28;20024;-65
2023/04/11 03:53:08;;;;;;;28.27;7.68;;;;;;;;;;5072270;28;20020;-65
2023/04/11 03:55:33;;;;;;;23.27;7.22;;;;;;;;;;5072480;28;20035;-65
2023/04/11 03:57:59;;;;;;;28.55;6.28;;;;;;;;;;5071466;28;20131;-66
2023/04/11 04:00:24;;;;;;;31.30;6.80;;;;;;;;;;5073023;28;20028;-65
2023/04/11 04:02:49;;;;;;;19.35;6.60;;;;;;;;;;5072453;28;20115;-65
2023/04/11 04:05:15;;;;;;;21.17;6.53;;;;;;;;;;5072616;28;20446;-65
2023/04/11 04:07:40;;;;;;;25.67;7.30;;;;;;;;;;5071638;28;20025;-65
2023/04/11 04:10:05;;;;;;;19.13;6.45;;;;;;;;;;5079202;28;20028;-65
2023/04/11 04:12:31;;;;;;;18.17;6.40;;;;;;;;;;5091824;28;20113;-65
2023/04/11 04:14:56;;;;;;;23.15;6.75;;;;;;;;;;5071358;28;20382;-65
2023/04/11 04:17:22;;;;;;;28.38;6.55;;;;;;;;;;5072363;28;20036;-65
2023/04/11 04:19:47;;;;;;;14.23;5.72;;;;;;;;;;5071594;28;20017;-65
2023/04/11 04:22:16;;;;;;;18.85;6.20;;;;;;;;;;5072148;28;20035;-64
2023/04/11 04:24:44;;;;;;;32.70;6.68;;;;;;;;;;5072239;28;20529;-65
2023/04/11 04:27:12;;;;;;;18.13;7.13;;;;;;;;;;5084332;28;20107;-65
2023/04/11 04:29:38;;;;;;;22.02;6.15;;;;;;;;;;5071902;28;20378;-65
2023/04/11 04:32:09;;;;;;;20.92;6.32;;;;;;;;;;5071770;28;20029;-63
2023/04/11 04:34:39;;;;;;;17.52;5.97;;;;;;;;;;5072005;28;20032;-64
2023/04/11 04:37:05;;;;;;;22.42;6.22;;;;;;;;;;5072347;28;20028;-63
2023/04/11 04:39:32;;;;;;;17.77;6.18;;;;;;;;;;5071752;28;20383;-64
2023/04/11 04:41:58;;;;;;;20.05;5.85;;;;;;;;;;5074043;28;20028;-65
2023/04/11 04:44:24;;;;;;;14.32;5.40;;;;;;;;;;5090392;28;20027;-63
2023/04/11 04:46:55;;;;;;;20.98;6.15;;;;;;;;;;5076175;28;20043;-65
2023/04/11 04:49:21;;;;;;;20.75;6.05;;;;;;;;;;5071998;28;20056;-66
2023/04/11 04:51:46;;;;;;;16.65;5.97;;;;;;;;;;5074759;28;20482;-65
2023/04/11 04:54:12;;;;;;;19.55;6.55;;;;;;;;;;5079166;28;20027;-65
2023/04/11 04:56:37;;;;;;;23.67;6.18;;;;;;;;;;5074526;28;20020;-65
2023/04/11 04:59:03;;;;;;;16.83;5.25;;;;;;;;;;5072235;28;20042;-66
2023/04/11 05:01:28;;;;;;;19.45;6.35;;;;;;;;;;5080223;28;20029;-65
2023/04/11 05:03:57;;;;;;;12.90;4.63;;;;;;;;;;5071522;28;20117;-65
2023/04/11 05:06:24;;;;;;;22.80;6.32;;;;;;;;;;5079107;28;20024;-65
2023/04/11 05:08:50;;;;;;;16.90;5.30;;;;;;;;;;5076512;28;20024;-65
2023/04/11 05:11:15;;;;;;;15.50;5.25;;;;;;;;;;5073382;28;20061;-65
2023/04/11 05:13:40;;;;;;;22.30;7.00;;;;;;;;;;5071708;28;20024;-65
2023/04/11 05:16:06;;;;;;;19.73;5.72;;;;;;;;;;5076793;28;20557;-65
2023/04/11 05:18:31;;;;;;;19.60;5.80;;;;;;;;;;5071495;28;20111;-65
2023/04/11 05:20:56;;;;;;;14.52;5.10;;;;;;;;;;5076149;28;20024;-68
2023/04/11 05:23:21;;;;;;;29.83;6.32;;;;;;;;;;5074046;28;20426;-65
2023/04/11 05:25:47;;;;;;;21.90;5.97;;;;;;;;;;5071449;28;20021;-65
2023/04/11 05:28:12;;;;;;;16.90;6.03;;;;;;;;;;5066720;28;20048;-66
2023/04/11 05:30:37;;;;;;;20.15;5.78;;;;;;;;;;5074362;28;20851;-65
2023/04/11 05:33:02;;;;;;;16.30;5.05;;;;;;;;;;5071168;28;20052;-65
2023/04/11 05:35:28;;;;;;;19.70;6.88;;;;;;;;;;5073342;28;20478;-65
2023/04/11 05:37:54;;;;;;;18.85;6.68;;;;;;;;;;5052095;28;20271;-66
2023/04/11 05:40:19;;;;;;;16.35;5.72;;;;;;;;;;5046417;28;20891;-66
2023/04/11 05:42:44;;;;;;;19.08;5.82;;;;;;;;;;5046311;28;20024;-65
2023/04/11 05:45:12;;;;;;;25.98;6.05;;;;;;;;;;5056889;28;20037;-66
2023/04/11 05:47:37;;;;;;;31.17;7.18;;;;;;;;;;5034050;28;20067;-65
2023/04/11 05:50:03;;;;;;;31.95;6.13;;;;;;;;;;5041488;28;20993;-65
2023/04/11 05:52:28;;;;;;;20.70;6.22;;;;;;;;;;5072626;28;20032;-65
2023/04/11 05:54:53;;;;;;;22.50;5.93;;;;;;;;;;5075618;28;20032;-65
2023/04/11 05:57:19;;;;;;;20.30;5.60;;;;;;;;;;5077305;28;20115;-65
2023/04/11 05:59:48;;;;;;;20.45;6.70;;;;;;;;;;5073776;28;20079;-65
2023/04/11 06:02:13;;;;;;;21.20;7.78;;;;;;;;;;5077339;28;20024;-66
2023/04/11 06:04:38;;;;;;;32.63;7.68;;;;;;;;;;5073958;28;20108;-65
2023/04/11 06:07:04;;;;;;;22.67;7.00;;;;;;;;;;5076191;28;20028;-65
2023/04/11 06:09:29;;;;;;;19.05;5.78;;;;;;;;;;5077630;28;20437;-65
2023/04/11 06:11:56;;;;;;;15.73;5.72;;;;;;;;;;5083950;28;20068;-65
2023/04/11 06:14:21;;;;;;;33.67;7.45;;;;;;;;;;5050359;28;20032;-65
2023/04/11 06:16:47;;;;;;;17.27;5.53;;;;;;;;;;5065193;28;20024;-66
2023/04/11 06:19:12;;;;;;;14.57;5.65;;;;;;;;;;5045486;28;20146;-65
2023/04/11 06:21:37;;;;;;;18.65;6.38;;;;;;;;;;5050753;28;20857;-65
2023/04/11 06:24:09;;;;;;;27.38;4.95;;;;;;;;;;5086278;28;20146;-65
2023/04/11 06:26:34;;;;;;;16.52;5.75;;;;;;;;;;5068712;28;20044;-65
2023/04/11 06:29:02;;;;;;;19.92;5.65;;;;;;;;;;5073663;28;20490;-64
2023/04/11 06:31:28;;;;;;;15.18;5.38;;;;;;;;;;5074235;28;20104;-65
2023/04/11 06:33:53;;;;;;;14.13;5.15;;;;;;;;;;5073590;28;20012;-65
2023/04/11 06:36:18;;;;;;;18.38;4.97;;;;;;;;;;5084591;28;20035;-65
2023/04/11 06:38:44;;;;;;;21.63;5.57;;;;;;;;;;5074558;28;20375;-66
2023/04/11 06:41:09;;;;;;;18.52;5.07;;;;;;;;;;5082002;28;20386;-65
2023/04/11 06:43:34;;;;;;;21.13;5.20;;;;;;;;;;5080079;28;20391;-65
2023/04/11 06:45:59;;;;;;;22.77;6.70;;;;;;;;;;5080936;28;20099;-65
2023/04/11 06:48:25;;;;;;;16.02;5.32;;;;;;;;;;5074472;28;20028;-65
2023/04/11 06:50:50;;;;;;;11.77;4.90;;;;;;;;;;5079235;28;20489;-67
2023/04/11 06:53:15;;;;;;;14.85;4.75;;;;;;;;;;5087535;28;20048;-66
2023/04/11 06:55:40;;;;;;;16.17;4.72;;;;;;;;;;5077744;28;20366;-65
2023/04/11 06:58:06;;;;;;;10.98;4.82;;;;;;;;;;5074510;28;20020;-65
2023/04/11 07:00:31;;;;;;;16.35;4.28;;;;;;;;;;5075200;28;20036;-65
2023/04/11 07:02:56;;;;;;;14.45;4.70;;;;;;;;;;5072164;28;20463;-65
2023/04/11 07:05:21;;;;;;;12.70;4.68;;;;;;;;;;5072688;28;20036;-65
2023/04/11 07:07:47;;;;;;;13.25;4.40;;;;;;;;;;5073107;28;20029;-65
2023/04/11 07:10:12;;;;;;;22.77;6.03;;;;;;;;;;5081146;28;20107;-65
2023/04/11 07:12:37;;;;;;;13.50;4.20;;;;;;;;;;5077706;28;20039;-65
2023/04/11 07:15:03;;;;;;;17.27;5.15;;;;;;;;;;5073325;28;20051;-65
2023/04/11 07:17:29;;;;;;;11.57;3.83;;;;;;;;;;5090251;28;20024;-64
2023/04/11 07:19:55;;;;;;;20.50;5.47;;;;;;;;;;5081264;28;20020;-65
2023/04/11 07:22:20;;;;;;;19.02;5.43;;;;;;;;;;5078958;28;20074;-65
2023/04/11 07:24:49;;;;;;;17.55;4.68;;;;;;;;;;5072678;28;20024;-65
2023/04/11 07:27:16;;;;;;;19.10;4.20;;;;;;;;;;5073442;28;20376;-65
2023/04/11 07:29:41;;;;;;;19.42;4.85;;;;;;;;;;5072739;28;20029;-64
2023/04/11 07:32:06;;;;;;;14.98;5.03;;;;;;;;;;5085393;28;20035;-65
2023/04/11 07:34:32;;;;;;;13.07;4.55;;;;;;;;;;5073125;28;20463;-65
2023/04/11 07:36:59;;;;;;;9.32;3.78;;;;;;;;;;5083947;28;20047;-65
2023/04/11 07:39:25;;;;;;;13.75;4.70;;;;;;;;;;5073161;28;20475;-65
2023/04/11 07:41:51;;;;;;;16.58;4.45;;;;;;;;;;5083152;28;20024;-65
2023/04/11 07:44:16;;;;;;;16.38;4.55;;;;;;;;;;5055152;28;20197;-65
2023/04/11 07:46:42;;;;;;;17.65;4.30;;;;;;;;;;5082039;28;20028;-65
2023/04/11 07:49:07;;;;;;;14.52;4.28;;;;;;;;;;5079047;28;20371;-65
2023/04/11 07:51:32;;;;;;;20.85;5.68;;;;;;;;;;5086908;28;20024;-65
2023/04/11 07:53:57;;;;;;;12.20;4.30;;;;;;;;;;5072746;28;20485;-66
2023/04/11 07:56:23;;;;;;;13.13;4.45;;;;;;;;;;5073778;28;20082;-65
2023/04/11 07:58:48;;;;;;;8.45;3.17;;;;;;;;;;5058683;28;20017;-65
2023/04/11 08:01:24;;;;;;;12.45;4.40;;;;;;;;;;5090110;28;20414;-65
2023/04/11 08:03:53;;;;;;;9.45;3.78;;;;;;;;;;5079528;28;20012;-65
2023/04/11 08:06:18;;;;;;;6.82;3.55;;;;;;;;;;5072884;28;20027;-64
2023/04/11 08:08:43;;;;;;;11.40;4.13;;;;;;;;;;5070485;28;20111;-64
2023/04/11 08:11:09;;;;;;;16.23;4.15;;;;;;;;;;5081288;28;20028;-65
2023/04/11 08:13:34;;;;;;;20.40;4.97;;;;;;;;;;5067576;28;20135;-66
2023/04/11 08:15:59;;;;;;;10.00;3.75;;;;;;;;;;5082338;28;20040;-65
2023/04/11 08:18:25;;;;;;;11.63;4.20;;;;;;;;;;5071821;28;20033;-65
2023/04/11 08:20:50;;;;;;;11.05;4.35;;;;;;;;;;5071507;28;20375;-64
2023/04/11 08:23:18;;;;;;;10.00;4.10;;;;;;;;;;5082141;28;20107;-65
2023/04/11 08:25:43;;;;;;;15.23;3.55;;;;;;;;;;5071552;28;20485;-65
2023/04/11 08:28:10;;;;;;;11.23;3.95;;;;;;;;;;5082111;28;20143;-65
2023/04/11 08:30:35;;;;;;;10.23;3.95;;;;;;;;;;5077612;28;20619;-64
2023/04/11 08:33:00;;;;;;;8.30;3.47;;;;;;;;;;5080784;28;20021;-64
2023/04/11 08:35:26;;;;;;;16.17;4.28;;;;;;;;;;5071350;28;20020;-65
2023/04/11 08:37:51;;;;;;;10.05;3.25;;;;;;;;;;5080035;28;20032;-64
2023/04/11 08:40:16;;;;;;;21.00;4.65;;;;;;;;;;5071667;28;20710;-65
2023/04/11 08:42:42;;;;;;;10.75;3.35;;;;;;;;;;5077608;28;20025;-65
2023/04/11 08:45:09;;;;;;;11.82;3.20;;;;;;;;;;5071261;28;20107;-66
2023/04/11 08:47:35;;;;;;;7.97;3.28;;;;;;;;;;5058346;28;20036;-65
2023/04/11 08:50:00;;;;;;;6.47;2.88;;;;;;;;;;5072395;28;20021;-64
2023/04/11 08:52:26;;;;;;;9.15;3.35;;;;;;;;;;5075290;28;20044;-65
2023/04/11 08:54:55;;;;;;;7.30;2.55;;;;;;;;;;5071054;28;20034;-65
2023/04/11 08:57:24;;;;;;;9.43;2.65;;;;;;;;;;5073042;28;20033;-65
2023/04/11 08:59:52;;;;;;;7.07;2.88;;;;;;;;;;5071925;28;20029;-66
2023/04/11 09:02:18;;;;;;;8.48;2.58;;;;;;;;;;5076411;28;20029;-66
2023/04/11 09:04:43;;;;;;;16.70;3.35;;;;;;;;;;5066821;28;20047;-66
2023/04/11 09:07:10;;;;;;;11.70;2.90;;;;;;;;;;5078058;28;20068;-65
2023/04/11 09:09:36;;;;;;;10.93;2.90;;;;;;;;;;5074463;28;20031;-65
2023/04/11 09:12:02;;;;;;;6.70;2.47;;;;;;;;;;5075815;28;20066;-67
2023/04/11 09:14:28;;;;;;;14.10;2.75;;;;;;;;;;5072071;28;20033;-65
2023/04/11 09:16:57;;;;;;;7.30;2.17;;;;;;;;;;5072965;28;20100;-65
2023/04/11 09:19:27;;;;;;;11.65;3.28;;;;;;;;;;5079004;28;20459;-65
2023/04/11 09:21:53;;;;;;;12.00;2.92;;;;;;;;;;5072326;28;20100;-66
2023/04/11 09:24:19;;;;;;;6.70;2.70;;;;;;;;;;5073195;28;20037;-65
2023/04/11 09:26:44;;;;;;;6.15;2.42;;;;;;;;;;5049818;28;20023;-65
2023/04/11 09:29:09;;;;;;;9.45;3.13;;;;;;;;;;5034496;28;20083;-65
2023/04/11 09:31:41;;;;;;;9.70;2.75;;;;;;;;;;5078458;28;20066;-65
2023/04/11 09:34:07;;;;;;;8.57;3.15;;;;;;;;;;5066906;28;20746;-65
2023/04/11 09:36:32;;;;;;;7.70;2.63;;;;;;;;;;5077956;28;20028;-66
2023/04/11 09:38:58;;;;;;;6.25;2.60;;;;;;;;;;5048162;28;20023;-65
2023/04/11 09:41:30;;;;;;;8.77;2.72;;;;;;;;;;5066440;28;20506;-64
2023/04/11 09:43:56;;;;;;;8.15;2.90;;;;;;;;;;5066789;28;20020;-64
2023/04/11 09:46:21;;;;;;;15.50;2.92;;;;;;;;;;5051248;28;20036;-64
2023/04/11 09:48:47;;;;;;;8.05;2.40;;;;;;;;;;5045040;28;20058;-63
2023/04/11 09:51:13;;;;;;;4.85;2.45;;;;;;;;;;5060730;28;20039;-64
2023/04/11 09:53:38;;;;;;;13.27;3.25;;;;;;;;;;5090028;28;20074;-64
2023/04/11 09:56:05;;;;;;;6.93;2.60;;;;;;;;;;5083573;28;20382;-66
2023/04/11 09:58:31;;;;;;;14.07;3.00;;;;;;;;;;5078124;28;20064;-63
2023/04/11 10:00:58;;;;;;;4.78;2.47;;;;;;;;;;5070247;28;20035;-64
2023/04/11 10:03:24;;;;;;;7.05;2.58;;;;;;;;;;5056244;28;20052;-65
2023/04/11 10:05:51;;;;;;;9.18;2.45;;;;;;;;;;5073628;28;21102;-63
2023/04/11 10:08:21;;;;;;;9.18;2.85;;;;;;;;;;5058983;28;20869;-64
2023/04/11 10:10:46;;;;;;;4.80;1.98;;;;;;;;;;5033659;28;20032;-64
2023/04/11 10:13:33;;;;;;;6.13;1.98;;;;;;;;;;5033839;28;20068;-64
2023/04/11 10:16:04;;;;;;;8.63;2.50;;;;;;;;;;5038951;28;20886;-65
2023/04/11 10:18:30;;;;;;;8.35;2.58;;;;;;;;;;5040800;28;20825;-65
2023/04/11 10:20:55;;;;;;;9.13;2.30;;;;;;;;;;5042251;28;20027;-66
2023/04/11 10:23:21;;;;;;;4.65;1.98;;;;;;;;;;5040824;28;20089;-65
2023/04/11 10:25:48;;;;;;;9.55;2.45;;;;;;;;;;5043748;28;20038;-66
2023/04/11 10:28:28;;;;;;;6.75;2.13;;;;;;;;;;5063663;28;20028;-66
2023/04/11 10:31:12;;;;;;;8.55;2.75;;;;;;;;;;5059316;28;20920;-65
2023/04/11 10:33:39;;;;;;;8.20;2.38;;;;;;;;;;5035907;28;20777;-65
2023/04/11 10:36:04;;;;;;;3.97;1.73;;;;;;;;;;5079889;28;20020;-66
2023/04/11 10:38:35;;;;;;;4.90;1.70;;;;;;;;;;5086976;28;20024;-66
2023/04/11 10:41:19;;;;;;;4.68;2.00;;;;;;;;;;5073819;28;20101;-66
2023/04/11 10:43:45;;;;;;;5.50;2.22;;;;;;;;;;5083419;28;20056;-66
2023/04/11 10:46:17;;;;;;;5.70;1.90;;;;;;;;;;5051091;28;20152;-66
2023/04/11 10:48:58;;;;;;;8.93;2.35;;;;;;;;;;5030486;28;20092;-66
2023/04/11 10:51:25;;;;;;;6.35;2.13;;;;;;;;;;5057683;28;20013;-66
2023/04/11 10:53:51;;;;;;;4.40;1.83;;;;;;;;;;5074458;28;20028;-65
2023/04/11 10:56:36;;;;;;;8.00;2.20;;;;;;;;;;5081657;28;20024;-66
2023/04/11 10:59:01;;;;;;;11.75;2.10;;;;;;;;;;5076401;28;20082;-67
2023/04/11 11:01:27;;;;;;;6.22;2.63;;;;;;;;;;5059366;28;20032;-67
2023/04/11 11:03:53;;;;;;;4.28;2.25;;;;;;;;;;5045134;28;20035;-64
2023/04/11 11:06:19;;;;;;;8.10;2.55;;;;;;;;;;5019338;28;20754;-65
2023/04/11 11:08:45;;;;;;;8.07;2.15;;;;;;;;;;5042741;28;20728;-63
2023/04/11 11:11:11;;;;;;;4.85;2.15;;;;;;;;;;5048359;28;20028;-64
2023/04/11 11:13:52;;;;;;;11.55;2.30;;;;;;;;;;5050781;28;20090;-64
2023/04/11 11:16:18;;;;;;;8.70;2.50;;;;;;;;;;5046456;28;20032;-63
2023/04/11 11:18:45;;;;;;;6.57;2.00;;;;;;;;;;5075848;28;20029;-64
2023/04/11 11:21:12;;;;;;;9.13;2.20;;;;;;;;;;5073371;28;20024;-64
2023/04/11 11:23:37;;;;;;;4.68;1.70;;;;;;;;;;5034819;28;20126;-64
2023/04/11 11:26:02;;;;;;;4.60;2.03;;;;;;;;;;5036060;28;20184;-63
2023/04/11 11:28:28;;;;;;;6.85;2.28;;;;;;;;;;5044374;28;20081;-64
2023/04/11 11:30:54;;;;;;;4.30;1.83;;;;;;;;;;5037178;28;20859;-64
2023/04/11 11:33:21;;;;;;;6.55;1.92;;;;;;;;;;5037215;28;20028;-65
2023/04/11 11:35:49;;;;;;;7.00;1.60;;;;;;;;;;5046831;28;20033;-64
2023/04/11 11:38:15;;;;;;;9.85;1.92;;;;;;;;;;5044796;28;20136;-64
2023/04/11 11:40:40;;;;;;;3.97;1.50;;;;;;;;;;5037538;28;20854;-63
2023/04/11 11:43:06;;;;;;;4.25;1.95;;;;;;;;;;5044029;28;20038;-64
2023/04/11 11:45:32;;;;;;;5.75;2.03;;;;;;;;;;5040358;28;20031;-64
2023/04/11 11:47:57;;;;;;;15.10;1.80;;;;;;;;;;5061338;28;20032;-64
2023/04/11 11:50:29;;;;;;;4.78;2.08;;;;;;;;;;5046876;28;20075;-64
2023/04/11 11:52:57;;;;;;;6.80;2.03;;;;;;;;;;5045238;28;20024;-64
2023/04/11 11:55:23;;;;;;;5.55;2.17;;;;;;;;;;5043648;28;20032;-63
2023/04/11 11:57:48;;;;;;;8.27;2.03;;;;;;;;;;5041264;28;20012;-63
2023/04/11 12:00:14;;;;;;;4.28;2.00;;;;;;;;;;5032472;28;20908;-63
2023/04/11 12:02:43;;;;;;;7.57;2.17;;;;;;;;;;5034706;28;20070;-66
2023/04/11 12:05:10;;;;;;;9.65;2.63;;;;;;;;;;5038352;28;20054;-67
2023/04/11 12:07:37;;;;;;;5.68;2.03;;;;;;;;;;5061140;28;20035;-65
2023/04/11 12:10:06;;;;;;;4.75;2.05;;;;;;;;;;5083220;28;20519;-66
2023/04/11 12:12:36;;;;;;;4.78;2.30;;;;;;;;;;5081924;28;20351;-66
2023/04/11 12:15:02;;;;;;;12.63;2.85;;;;;;;;;;5072571;28;20051;-66
2023/04/11 12:17:32;;;;;;;11.73;2.50;;;;;;;;;;5061439;28;20024;-65
2023/04/11 12:19:57;;;;;;;9.05;2.72;;;;;;;;;;5043445;28;20032;-66
2023/04/11 12:22:22;;;;;;;11.75;2.30;;;;;;;;;;5072378;28;20032;-67
2023/04/11 12:24:50;;;;;;;7.63;2.00;;;;;;;;;;5074236;28;20378;-66
2023/04/11 12:27:15;;;;;;;5.50;1.95;;;;;;;;;;5072363;28;20277;-65
2023/04/11 12:29:41;;;;;;;8.02;1.90;;;;;;;;;;5063287;28;20032;-65
2023/04/11 12:32:06;;;;;;;7.78;2.05;;;;;;;;;;5033948;28;20029;-65
2023/04/11 12:34:31;;;;;;;5.03;2.03;;;;;;;;;;5039387;28;20032;-63
2023/04/11 12:36:56;;;;;;;5.30;2.17;;;;;;;;;;5041947;28;20866;-64
2023/04/11 12:39:22;;;;;;;6.22;2.50;;;;;;;;;;5028137;28;20332;-64
2023/04/11 12:41:47;;;;;;;4.55;2.20;;;;;;;;;;5048047;28;20135;-65
2023/04/11 12:44:12;;;;;;;7.30;2.47;;;;;;;;;;5037023;28;20947;-64
2023/04/11 12:46:38;;;;;;;11.47;2.10;;;;;;;;;;5058384;28;20470;-66
2023/04/11 12:49:03;;;;;;;5.20;2.45;;;;;;;;;;5053168;28;20700;-67
2023/04/11 12:51:28;;;;;;;8.70;2.45;;;;;;;;;;5037731;28;20055;-66
2023/04/11 12:53:53;;;;;;;6.03;2.30;;;;;;;;;;5037803;28;20856;-65
2023/04/11 12:56:19;;;;;;;6.20;2.53;;;;;;;;;;5034011;28;20956;-66
2023/04/11 12:58:44;;;;;;;7.07;2.53;;;;;;;;;;5035551;28;20024;-65
2023/04/11 13:01:10;;;;;;;4.47;2.13;;;;;;;;;;5041630;28;20032;-66
2023/04/11 13:03:37;;;;;;;12.25;3.03;;;;;;;;;;5036194;28;20024;-65
2023/04/11 13:06:02;;;;;;;5.03;2.20;;;;;;;;;;5036128;28;20089;-65
2023/04/11 13:08:27;;;;;;;5.95;2.75;;;;;;;;;;5043903;28;20131;-65
2023/04/11 13:10:52;;;;;;;4.85;1.95;;;;;;;;;;5078055;28;20024;-66
2023/04/11 13:13:17;;;;;;;5.10;2.40;;;;;;;;;;5039311;28;20020;-65
2023/04/11 13:15:43;;;;;;;6.50;2.33;;;;;;;;;;5062619;28;21182;-65
2023/04/11 13:18:08;;;;;;;11.97;3.13;;;;;;;;;;5033020;28;20032;-66
2023/04/11 13:20:33;;;;;;;4.95;2.10;;;;;;;;;;5047150;28;20278;-66
2023/04/11 13:22:59;;;;;;;6.30;2.83;;;;;;;;;;5043883;28;20027;-65
2023/04/11 13:25:24;;;;;;;6.97;2.38;;;;;;;;;;5034612;28;20286;-65
2023/04/11 13:27:50;;;;;;;8.45;2.60;;;;;;;;;;5030280;28;20029;-65
2023/04/11 13:30:15;;;;;;;7.25;2.92;;;;;;;;;;5044104;28;20052;-66
2023/04/11 13:32:40;;;;;;;7.68;3.00;;;;;;;;;;5032689;28;20036;-66
2023/04/11 13:35:06;;;;;;;9.88;3.40;;;;;;;;;;5043672;28;20066;-65
2023/04/11 13:37:31;;;;;;;6.35;2.67;;;;;;;;;;5040887;28;20024;-65
2023/04/11 13:39:56;;;;;;;6.93;2.58;;;;;;;;;;5033913;28;20090;-65
2023/04/11 13:42:22;;;;;;;8.18;2.65;;;;;;;;;;5043961;28;20059;-65
2023/04/11 13:44:47;;;;;;;5.18;2.20;;;;;;;;;;5042566;28;20123;-65
2023/04/11 13:47:12;;;;;;;12.80;2.55;;;;;;;;;;5032362;28;20024;-66
2023/04/11 13:49:38;;;;;;;7.20;2.90;;;;;;;;;;5032032;28;20028;-66
2023/04/11 13:52:03;;;;;;;7.28;2.38;;;;;;;;;;5042640;28;20039;-65
2023/04/11 13:54:29;;;;;;;7.93;2.67;;;;;;;;;;5043060;28;20016;-65
2023/04/11 13:56:55;;;;;;;6.43;2.42;;;;;;;;;;5043091;28;20773;-66
2023/04/11 13:59:20;;;;;;;11.32;2.83;;;;;;;;;;5037857;28;20101;-65
2023/04/11 14:01:46;;;;;;;8.48;2.90;;;;;;;;;;5046488;28;20036;-65
2023/04/11 14:04:11;;;;;;;6.15;2.78;;;;;;;;;;5032076;28;20047;-65
2023/04/11 14:06:37;;;;;;;8.30;2.70;;;;;;;;;;5041589;28;20132;-66
2023/04/11 14:09:04;;;;;;;9.70;2.60;;;;;;;;;;5036440;28;20131;-66
2023/04/11 14:11:29;;;;;;;8.05;2.20;;;;;;;;;;5043630;28;20028;-62
2023/04/11 14:13:55;;;;;;;5.13;2.23;;;;;;;;;;5045583;28;20123;-66
2023/04/11 14:16:20;;;;;;;5.10;2.22;;;;;;;;;;5035993;28;20270;-65
2023/04/11 14:18:45;;;;;;;7.65;2.53;;;;;;;;;;5046345;28;20028;-66
2023/04/11 14:21:11;;;;;;;5.25;2.30;;;;;;;;;;5037875;28;20086;-65
2023/04/11 14:23:36;;;;;;;5.57;2.33;;;;;;;;;;5041682;28;20374;-64
2023/04/11 14:26:01;;;;;;;8.75;2.35;;;;;;;;;;5040407;28;20843;-65